Ne plus se rappeler de moi
Bonjour et Bienvenue
Pas de session ouverte
Samedi 23/07/2016
d:\inetpub\wwwroot\acrroussillon\reservation\ACR\IMAGES\IMG1.JPGd:\inetpub\wwwroot\acrroussillon\reservation\ACR\IMAGES\IMG2.JPGd:\inetpub\wwwroot\acrroussillon\reservation\ACR/IMAGES/IMG3.jpg
00:00:00
Horaires du 23/07/2016 (Données à titre indicatif seulement).
Lever du soleil : 06h32 - Coucher du soleil : 21h18 (Heure Locale)
Jour aéronautique : 06h02 - Nuit aéronautique : 21h48 (Heure Locale)
Planning des réservations des aéronefs
Planning des réservations des aéronefs
2016/07/23 14:30
LFMP 231430Z AUTO 32020G31KT 9999 FEW082 29/10 Q1017 TEMPO SHRA BKN030TCU
Planning des réservations des aéronefs
2016/07/23 15:25
TAF LFMP 231400Z 2315/2415 31015KT CAVOK
TEMPO 2315/2320 32020G30KT SHRA BKN030TCU
Informations sur les aéronefs
Informations sur les aéronefs
Modifications des Types de vols
ATTENTION PLUS DE PAIEMENT EN LIGNE DEPUIS LA MAISON
AEROCLUB DU ROUSSILLON. AVENUE MAURICE BELLONTE. 66000 PERPIGNAN. Tel : 04.68.73.48.18 Fax : 09.55.16.18.97 Courriel : aeroclub-roussillon@hotmail.fr
 METAR / TAF
LIENS UTILES
envoyer un e-mail
d:\inetpub\wwwroot\acrroussillon\reservation\ACR/IMAGES/Logo.jpg
Identifiez vous pour interaction
d:\inetpub\wwwroot\acrroussillon\reservation\ACR/IMAGES/Logo.jpg
Aéro-Club du Roussillon